Latest Flight | Flight Log | Data Trends | Login | Join FlightData.com!
Date Range From To
Export:
Flight Log - N266CH - Click on row to view flight. Click on header to sort.
Date Origin Dest Depart Arrive Hobbs Flight Time Flight Distance Fuel Fuel/hr Fuel/nm Altitude Gnd Speed
Fri, Feb 28, 2014 LFPP LFPP 08:49 09:29 0.67 hrs 0.00 hrs 0.00 nm 0.00 gal 0.00 gal/hr 0.00 gal/nm 0 msl 0 kts
Fri, Feb 28, 2014 LFPP LFPP 08:39 08:48 0.16 hrs 0.00 hrs 0.00 nm 0.00 gal 0.00 gal/hr 0.00 gal/nm 0 msl 0 kts
Fri, Feb 28, 2014 LFPP LFPP 08:07 08:38 0.51 hrs 0.00 hrs 0.00 nm 0.00 gal 0.00 gal/hr 0.00 gal/nm 0 msl 0 kts
Thu, Feb 27, 2014     14:03 14:04 0.02 hrs 0.00 hrs 0.00 nm 0.00 gal 0.00 gal/hr 0.00 gal/nm 0 msl 0 kts
Thu, Feb 27, 2014 LFPP LFPP 13:54 11:48 0.11 hrs 0.00 hrs 0.00 nm 0.00 gal 0.00 gal/hr 0.00 gal/nm 0 msl 0 kts
Thu, Feb 27, 2014 LFPP LFPP 13:27 13:48 0.34 hrs 0.00 hrs 0.00 nm 0.00 gal 0.00 gal/hr 0.00 gal/nm 0 msl 0 kts
Thu, Feb 27, 2014 LFPP LFPP 13:23 04:44 0.07 hrs 0.00 hrs 0.00 nm 0.00 gal 0.00 gal/hr 0.00 gal/nm 0 msl 0 kts
Thu, Feb 27, 2014 LFPP LFPP 13:20 13:22 0.03 hrs 0.00 hrs 0.00 nm 0.00 gal 0.00 gal/hr 0.00 gal/nm 0 msl 0 kts
Wed, Feb 26, 2014     16:18 16:18 0.01 hrs 0.00 hrs 0.00 nm 0.00 gal 0.00 gal/hr 0.00 gal/nm 0 msl 0 kts
Wed, Feb 26, 2014 LFPP LFPP 15:45 16:17 0.51 hrs 0.25 hrs 32.26 nm 5.15 gal 10.17 gal/hr 0.16 gal/nm 1510 msl 127 kts
Mon, Feb 10, 2014 LFPP LFPP 14:08 14:10 0.05 hrs 0.00 hrs 0.00 nm 0.00 gal 0.00 gal/hr 0.00 gal/nm 0 msl 0 kts
Fri, Feb 7, 2014 LFPP LFPP 12:28 12:30 0.04 hrs 0.00 hrs 0.00 nm 0.00 gal 0.00 gal/hr 0.00 gal/nm 0 msl 0 kts
Fri, Feb 7, 2014     12:26 12:27 0.01 hrs 0.00 hrs 0.00 nm 0.00 gal 0.00 gal/hr 0.00 gal/nm 0 msl 0 kts
Fri, Feb 7, 2014     12:25 12:26 0.01 hrs 0.00 hrs 0.00 nm 0.00 gal 0.00 gal/hr 0.00 gal/nm 0 msl 0 kts
Thu, Feb 6, 2014 LFPP LFPP 15:09 15:11 0.05 hrs 0.00 hrs 0.00 nm 0.00 gal 0.00 gal/hr 0.00 gal/nm 0 msl 0 kts
Thu, Feb 6, 2014 LFPP LFPP 10:08 10:12 0.05 hrs 0.00 hrs 0.00 nm 0.00 gal 0.00 gal/hr 0.00 gal/nm 0 msl 0 kts
Thu, Feb 6, 2014     09:57 09:58 0.01 hrs 0.00 hrs 0.00 nm 0.00 gal 0.00 gal/hr 0.00 gal/nm 0 msl 0 kts
Mon, Feb 3, 2014 LFPP LFPP 14:02 15:05 0.03 hrs 0.00 hrs 0.00 nm 0.00 gal 0.00 gal/hr 0.00 gal/nm 0 msl 0 kts
Thu, Jan 2, 2014 LFMZ LFPP 11:39 14:09 2.49 hrs 2.24 hrs 395.57 nm 43.10 gal 17.33 gal/hr 0.11 gal/nm 10009 msl 176 kts
Thu, Jan 2, 2014 LFMZ LFMZ 11:13 11:22 0.14 hrs 0.00 hrs 0.00 nm 0.52 gal 3.81 gal/hr 0.00 gal/nm 0 msl 0 kts
Tue, Dec 17, 2013 LFPP LFMZ 04:32 07:37 3.04 hrs 2.65 hrs 423.15 nm 48.62 gal 15.99 gal/hr 0.11 gal/nm 15005 msl 158 kts
Tue, Dec 17, 2013 LFPP LFPP 04:19 04:24 0.08 hrs 0.00 hrs 0.00 nm 0.34 gal 4.39 gal/hr 0.00 gal/nm 0 msl 0 kts
Tue, Dec 17, 2013 LFPP LFPP 04:08 04:09 0.02 hrs 0.00 hrs 0.00 nm 0.00 gal 0.00 gal/hr 0.00 gal/nm 0 msl 0 kts
Mon, Dec 16, 2013 LFPP LFPP 14:48 14:58 0.16 hrs 0.00 hrs 0.00 nm 0.00 gal 0.03 gal/hr 0.00 gal/nm 0 msl 0 kts
Mon, Dec 16, 2013 LFPP LFPP 14:31 14:47 0.28 hrs 0.00 hrs 0.00 nm 0.00 gal 0.00 gal/hr 0.00 gal/nm 0 msl 0 kts
Mon, Dec 16, 2013 LFPP LFPP 14:12 14:30 0.3 hrs 0.00 hrs 0.00 nm 0.00 gal 0.00 gal/hr 0.00 gal/nm 0 msl 0 kts
Mon, Dec 16, 2013 LFPP LFPP 14:07 14:11 0.07 hrs 0.00 hrs 0.00 nm 0.00 gal 0.00 gal/hr 0.00 gal/nm 0 msl 0 kts
Mon, Dec 16, 2013 LFPP LFPP 14:00 14:03 0.06 hrs 0.00 hrs 0.00 nm 0.00 gal 0.00 gal/hr 0.00 gal/nm 0 msl 0 kts
Sat, Dec 14, 2013 LFPP LFPP 11:54 12:19 0.42 hrs 0.25 hrs 32.86 nm 4.55 gal 10.80 gal/hr 0.14 gal/nm 2378 msl 128 kts
Sat, Dec 14, 2013 LFPP LFPP 11:47 11:53 0.1 hrs 0.00 hrs 0.00 nm 0.42 gal 4.37 gal/hr 0.00 gal/nm 0 msl 0 kts
Sat, Dec 14, 2013 LFPP LFPP 11:27 12:27 0.09 hrs 0.00 hrs 0.00 nm 0.00 gal 0.00 gal/hr 0.00 gal/nm 0 msl 0 kts
Fri, Dec 13, 2013 LFPP LFPP 16:25 17:15 0.84 hrs 0.00 hrs 0.00 nm 0.00 gal 0.00 gal/hr 0.00 gal/nm 0 msl 0 kts
Fri, Dec 13, 2013 LFPP LFPP 15:56 16:24 0.47 hrs 0.00 hrs 0.03 nm 0.00 gal 0.00 gal/hr 0.00 gal/nm 616 msl 741 kts
Fri, Dec 13, 2013 LFPP LFPP 15:47 15:50 0.05 hrs 0.00 hrs 0.00 nm 0.00 gal 0.00 gal/hr 0.00 gal/nm 0 msl 0 kts
Mon, Dec 9, 2013 LFPP LFPP 15:50 15:54 0.05 hrs 0.00 hrs 0.00 nm 0.13 gal 2.52 gal/hr 0.00 gal/nm 0 msl 0 kts
Mon, Dec 9, 2013 LFPP LFPP 14:59 15:50 0.81 hrs 0.37 hrs 54.34 nm 8.22 gal 10.12 gal/hr 0.15 gal/nm 2507 msl 145 kts
Wed, Nov 13, 2013     15:21 15:22 0.02 hrs 0.00 hrs 0.00 nm 0.00 gal 0.00 gal/hr 0.00 gal/nm 0 msl 0 kts
Wed, Nov 13, 2013 LFPP LFPP 15:13 15:20 0.13 hrs 0.00 hrs 0.00 nm 0.00 gal 0.00 gal/hr 0.00 gal/nm 0 msl 0 kts
Wed, Nov 13, 2013 LFPP LFPP 15:04 15:09 0.09 hrs 0.00 hrs 0.00 nm 0.00 gal 0.00 gal/hr 0.00 gal/nm 0 msl 0 kts
Wed, Nov 13, 2013 LFPP LFPP 14:41 14:42 0.03 hrs 0.00 hrs 0.00 nm 0.00 gal 0.00 gal/hr 0.00 gal/nm 0 msl 0 kts
Wed, Nov 13, 2013 LFPP LFPP 14:20 14:40 0.32 hrs 0.00 hrs 0.00 nm 0.00 gal 0.00 gal/hr 0.00 gal/nm 0 msl 0 kts
Wed, Nov 13, 2013     13:59 14:01 0.05 hrs 0.00 hrs 0.00 nm 0.00 gal 0.00 gal/hr 0.00 gal/nm 0 msl 0 kts
Wed, Nov 13, 2013 LFPP LFPP 13:05 13:19 0.23 hrs 0.00 hrs 0.00 nm 0.00 gal 0.00 gal/hr 0.00 gal/nm 0 msl 0 kts
Wed, Nov 13, 2013     08:35 08:38 0.05 hrs 0.00 hrs 0.00 nm 0.00 gal 0.00 gal/hr 0.00 gal/nm 0 msl 0 kts
Tue, Nov 12, 2013     14:02 14:04 0.03 hrs 0.00 hrs 0.00 nm 0.00 gal 0.00 gal/hr 0.00 gal/nm 0 msl 0 kts
Tue, Nov 12, 2013     13:45 13:52 0.11 hrs 0.00 hrs 0.00 nm 0.00 gal 0.00 gal/hr 0.00 gal/nm 0 msl 0 kts
Tue, Nov 12, 2013     13:21 13:24 0.06 hrs 0.00 hrs 0.00 nm 0.00 gal 0.00 gal/hr 0.00 gal/nm 0 msl 0 kts
Tue, Nov 12, 2013     13:15 13:17 0.03 hrs 0.00 hrs 0.00 nm 0.00 gal 0.00 gal/hr 0.00 gal/nm 0 msl 0 kts
Tue, Nov 12, 2013     12:49 12:52 0.05 hrs 0.00 hrs 0.00 nm 0.00 gal 0.00 gal/hr 0.00 gal/nm 0 msl 0 kts
Tue, Nov 12, 2013     10:11 10:12 0.01 hrs 0.00 hrs 0.00 nm 0.00 gal 0.00 gal/hr 0.00 gal/nm 0 msl 0 kts
Tue, Nov 12, 2013     10:08 04:50 0.02 hrs 0.00 hrs 0.00 nm 0.00 gal 0.00 gal/hr 0.00 gal/nm 0 msl 0 kts
Fri, Nov 8, 2013     13:37 13:38 0.02 hrs 0.00 hrs 0.00 nm 0.00 gal 0.00 gal/hr 0.00 gal/nm 0 msl 0 kts
Fri, Nov 8, 2013     12:55 12:56 0.03 hrs 0.00 hrs 0.00 nm 0.00 gal 0.00 gal/hr 0.00 gal/nm 0 msl 0 kts
Thu, Nov 7, 2013     16:28 16:28 0.01 hrs 0.00 hrs 0.00 nm 0.00 gal 0.00 gal/hr 0.00 gal/nm 0 msl 0 kts
Thu, Nov 7, 2013     15:02 15:03 0.01 hrs 0.00 hrs 0.00 nm 0.06 gal 5.27 gal/hr 0.00 gal/nm 0 msl 0 kts
Thu, Nov 7, 2013 LFPP LFPP 13:00 13:25 0.42 hrs 0.00 hrs 0.00 nm 2.84 gal 6.79 gal/hr 0.00 gal/nm 0 msl 0 kts
Thu, Nov 7, 2013 LFPP LFPP 11:29 11:35 0.1 hrs 0.00 hrs 0.00 nm 0.00 gal 0.00 gal/hr 0.00 gal/nm 0 msl 0 kts
Thu, Nov 7, 2013 LFPP LFPP 10:50 11:29 0.63 hrs 0.00 hrs 0.00 nm 0.00 gal 0.00 gal/hr 0.00 gal/nm 0 msl 0 kts
Wed, Nov 6, 2013     17:11 17:12 0.02 hrs 0.00 hrs 0.00 nm 0.00 gal 0.00 gal/hr 0.00 gal/nm 0 msl 0 kts
Tue, Nov 5, 2013 LFPP LFPP 17:04 17:06 0.03 hrs 0.00 hrs 0.00 nm 0.00 gal 0.00 gal/hr 0.00 gal/nm 0 msl 0 kts
Tue, Nov 5, 2013 LFPP LFPP 14:00 14:38 0.63 hrs 0.00 hrs 0.00 nm 0.00 gal 0.00 gal/hr 0.00 gal/nm 0 msl 0 kts
Tue, Nov 5, 2013 LFPP LFPP 10:55 13:53 2.98 hrs 0.01 hrs 0.01 nm 0.00 gal 0.00 gal/hr 0.00 gal/nm 379 msl 98 kts
Tue, Nov 5, 2013 LFPP LFPP 10:41 10:54 0.22 hrs 0.00 hrs 0.00 nm 0.00 gal 0.00 gal/hr 0.00 gal/nm 0 msl 0 kts
Tue, Nov 5, 2013 LFPP LFPP 10:10 04:14 0.5 hrs 0.00 hrs 0.02 nm 0.00 gal 0.00 gal/hr 0.00 gal/nm 336 msl 55 kts
Tue, Nov 5, 2013     08:13 08:15 0.04 hrs 0.00 hrs 0.00 nm 0.00 gal 0.00 gal/hr 0.00 gal/nm 0 msl 0 kts
Tue, Nov 5, 2013 LFPP LFPP 08:03 08:12 0.15 hrs 0.00 hrs 0.00 nm 0.00 gal 0.00 gal/hr 0.00 gal/nm 0 msl 0 kts
Mon, Nov 4, 2013 LFPP LFPP 15:47 16:17 0.5 hrs 0.00 hrs 0.00 nm 0.00 gal 0.00 gal/hr 0.00 gal/nm 0 msl 0 kts
Thu, Oct 31, 2013 LFPP LFPP 14:15 14:43 0.47 hrs 0.25 hrs 28.83 nm 5.07 gal 10.80 gal/hr 0.18 gal/nm 1519 msl 117 kts
Thu, Oct 31, 2013 LFPP LFPP 12:45 12:47 0.04 hrs 0.00 hrs 0.00 nm 0.00 gal 0.00 gal/hr 0.00 gal/nm 0 msl 0 kts
Wed, Oct 30, 2013 LFPP LFPP 18:42 18:43 0.03 hrs 0.00 hrs 0.00 nm 0.00 gal 0.00 gal/hr 0.00 gal/nm 0 msl 0 kts
Wed, Oct 30, 2013 LFPP LFPP 17:48 17:50 0.03 hrs 0.00 hrs 0.00 nm 0.00 gal 0.00 gal/hr 0.00 gal/nm 0 msl 0 kts
Wed, Oct 30, 2013 LFPP LFPP 17:44 17:47 0.05 hrs 0.00 hrs 0.00 nm 0.00 gal 0.00 gal/hr 0.00 gal/nm 0 msl 0 kts
Thu, Oct 17, 2013 LFPP LFPP 13:24 16:47 3.34 hrs 0.00 hrs 0.00 nm 0.00 gal 0.00 gal/hr 0.00 gal/nm 0 msl 0 kts
Fri, Jul 5, 2013 LFPP LFPP 14:24 14:32 0.14 hrs 0.00 hrs 0.00 nm 0.00 gal 0.00 gal/hr 0.00 gal/nm 0 msl 0 kts
Fri, Jul 5, 2013     12:30 12:30 0.01 hrs 0.00 hrs 0.00 nm 0.00 gal 0.00 gal/hr 0.00 gal/nm 0 msl 0 kts
Thu, Jul 4, 2013 LSGG LFPP 08:08 10:08 1.97 hrs 1.53 hrs 236.30 nm 28.74 gal 14.59 gal/hr 0.12 gal/nm 9087 msl 154 kts
Thu, Jul 4, 2013     06:53 06:55 0.03 hrs 0.00 hrs 0.00 nm 0.00 gal 0.00 gal/hr 0.00 gal/nm 0 msl 0 kts
Thu, Jun 27, 2013     07:15 07:16 0.02 hrs 0.00 hrs 0.00 nm 0.00 gal 0.00 gal/hr 0.00 gal/nm 0 msl 0 kts
Sun, Jun 16, 2013 LSGG LSGG 14:01 14:09 0.12 hrs 0.00 hrs 0.00 nm 0.00 gal 0.00 gal/hr 0.00 gal/nm 0 msl 0 kts
Sat, Jun 8, 2013 LSGL LSGG 09:16 10:05 0.8 hrs 0.64 hrs 79.95 nm 11.46 gal 14.27 gal/hr 0.14 gal/nm 3628 msl 122 kts
Sat, Jun 8, 2013 LSGL LSGL 06:46 08:26 1.62 hrs 1.42 hrs 245.61 nm 31.70 gal 19.53 gal/hr 0.13 gal/nm 15009 msl 168 kts
Sat, Jun 8, 2013 LSGG LSGL 05:37 06:10 0.54 hrs 0.25 hrs 36.58 nm 6.16 gal 11.51 gal/hr 0.17 gal/nm 3518 msl 144 kts
Fri, Jun 7, 2013 LSZF LSGG 13:49 14:46 0.92 hrs 0.75 hrs 128.19 nm 15.22 gal 16.54 gal/hr 0.12 gal/nm 4921 msl 164 kts
Fri, Jun 7, 2013 LSZF LSZF 09:10 09:12 0.03 hrs 0.00 hrs 0.00 nm 0.12 gal 3.74 gal/hr 0.00 gal/nm 0 msl 0 kts
Fri, Jun 7, 2013 LSZG LSZF 08:17 08:49 0.52 hrs 0.29 hrs 41.47 nm 6.56 gal 12.58 gal/hr 0.16 gal/nm 4503 msl 138 kts
Fri, Jun 7, 2013 LSZG LSZG 07:49 07:50 0.03 hrs 0.00 hrs 0.00 nm 0.00 gal 0.00 gal/hr 0.00 gal/nm 0 msl 0 kts
Fri, Jun 7, 2013 LSGG LSZG 05:51 06:40 0.81 hrs 0.51 hrs 80.73 nm 13.35 gal 16.58 gal/hr 0.17 gal/nm 4667 msl 156 kts
Fri, Jun 7, 2013     05:45 05:45 0.01 hrs 0.00 hrs 0.00 nm 0.00 gal 0.00 gal/hr 0.00 gal/nm 0 msl 0 kts
Sun, Jun 2, 2013     08:58 08:59 0.02 hrs 0.00 hrs 0.00 nm 0.00 gal 0.00 gal/hr 0.00 gal/nm 0 msl 0 kts
Wed, Apr 24, 2013 EDNY LSGG 14:42 16:13 1.49 hrs 1.15 hrs 214.90 nm 24.54 gal 16.47 gal/hr 0.11 gal/nm 13207 msl 182 kts
Wed, Apr 24, 2013 LSZH EDNY 08:57 09:47 0.81 hrs 0.49 hrs 79.75 nm 10.66 gal 13.14 gal/hr 0.13 gal/nm 7011 msl 158 kts
Wed, Apr 24, 2013 LSGG LSZH 05:35 06:57 1.35 hrs 1.00 hrs 150.78 nm 18.37 gal 13.57 gal/hr 0.12 gal/nm 8015 msl 149 kts
Wed, Apr 24, 2013     04:59 05:00 0.02 hrs 0.00 hrs 0.00 nm 0.00 gal 0.00 gal/hr 0.00 gal/nm 0 msl 0 kts
Mon, Apr 15, 2013 LFPP LSGG 09:39 11:23 1.7 hrs 1.49 hrs 241.74 nm 28.40 gal 16.76 gal/hr 0.12 gal/nm 8223 msl 160 kts
Mon, Apr 15, 2013 LFPP LFPP 09:26 09:34 0.13 hrs 0.00 hrs 0.00 nm 0.34 gal 2.76 gal/hr 0.00 gal/nm 0 msl 0 kts
Mon, Apr 15, 2013     09:24 09:24 0.01 hrs 0.00 hrs 0.00 nm 0.00 gal 0.00 gal/hr 0.00 gal/nm 0 msl 0 kts
Mon, Apr 15, 2013 LFPP LFPP 08:54 08:59 0.07 hrs 0.00 hrs 0.00 nm 0.21 gal 2.91 gal/hr 0.00 gal/nm 0 msl 0 kts
Mon, Apr 15, 2013     08:32 08:33 0.01 hrs 0.00 hrs 0.00 nm 0.00 gal 0.00 gal/hr 0.00 gal/nm 0 msl 0 kts
Fri, Apr 12, 2013 LFPP LFPP 16:36 16:44 0.13 hrs 0.00 hrs 0.00 nm 0.00 gal 0.00 gal/hr 0.00 gal/nm 0 msl 0 kts
Fri, Apr 12, 2013 LFPP LFPP 16:03 16:09 0.1 hrs 0.00 hrs 0.00 nm 0.00 gal 0.00 gal/hr 0.00 gal/nm 0 msl 0 kts
Wed, Apr 10, 2013 LFPP LFPP 12:32 12:35 0.05 hrs 0.00 hrs 0.00 nm 0.00 gal 0.00 gal/hr 0.00 gal/nm 0 msl 0 kts
Wed, Apr 10, 2013 LFPP LFPP 12:28 12:31 0.05 hrs 0.00 hrs 0.00 nm 0.00 gal 0.00 gal/hr 0.00 gal/nm 0 msl 0 kts
Wed, Apr 10, 2013 LFPP LFPP 08:04 08:43 0.65 hrs 0.00 hrs 0.00 nm 0.00 gal 0.00 gal/hr 0.00 gal/nm 0 msl 0 kts
Wed, Apr 10, 2013 LFPP LFPP 07:50 08:02 0.19 hrs 0.00 hrs 0.00 nm 0.00 gal 0.00 gal/hr 0.00 gal/nm 0 msl 0 kts
Thu, Apr 4, 2013 LFPP LFPP 08:20 08:22 0.04 hrs 0.00 hrs 0.00 nm 0.00 gal 0.00 gal/hr 0.00 gal/nm 0 msl 0 kts
Thu, Apr 4, 2013 LFPP LFPP 07:28 07:48 0.33 hrs 0.00 hrs 0.00 nm 1.68 gal 5.08 gal/hr 0.00 gal/nm 0 msl 0 kts
Wed, Apr 3, 2013     07:21 07:22 0.01 hrs 0.00 hrs 0.00 nm 0.00 gal 0.00 gal/hr 0.00 gal/nm 0 msl 0 kts
Tue, Apr 2, 2013     14:46 14:46 0.01 hrs 0.00 hrs 0.00 nm 0.00 gal 0.00 gal/hr 0.00 gal/nm 0 msl 0 kts
Tue, Apr 2, 2013     13:18 13:18 0.01 hrs 0.00 hrs 0.00 nm 0.00 gal 0.00 gal/hr 0.00 gal/nm 0 msl 0 kts
Tue, Apr 2, 2013     09:44 09:44 0.01 hrs 0.00 hrs 0.00 nm 0.00 gal 0.00 gal/hr 0.00 gal/nm 0 msl 0 kts
Tue, Apr 2, 2013     07:39 07:42 0.05 hrs 0.00 hrs 0.00 nm 0.00 gal 0.00 gal/hr 0.00 gal/nm 0 msl 0 kts
Fri, Mar 29, 2013     14:25 14:26 0.01 hrs 0.00 hrs 0.00 nm 0.00 gal 0.00 gal/hr 0.00 gal/nm 0 msl 0 kts
Fri, Mar 29, 2013     13:03 13:04 0.02 hrs 0.00 hrs 0.00 nm 0.00 gal 0.00 gal/hr 0.00 gal/nm 0 msl 0 kts
Thu, Mar 28, 2013 LFPP LFPP 13:06 13:25 0.31 hrs 0.00 hrs 0.00 nm 1.94 gal 6.20 gal/hr 0.00 gal/nm 0 msl 0 kts
Thu, Mar 21, 2013 LFPT LFPP 11:40 12:11 0.5 hrs 0.27 hrs 31.60 nm 5.64 gal 11.32 gal/hr 0.18 gal/nm 1408 msl 112 kts
Thu, Mar 21, 2013     11:31 11:32 0.02 hrs 0.00 hrs 0.00 nm 0.00 gal 0.00 gal/hr 0.00 gal/nm 0 msl 0 kts
Thu, Mar 21, 2013     11:03 11:04 0.01 hrs 0.00 hrs 0.00 nm 0.00 gal 0.00 gal/hr 0.00 gal/nm 0 msl 0 kts
Thu, Mar 21, 2013 LSGG LFPT 08:57 11:01 2.03 hrs 1.68 hrs 270.94 nm 33.20 gal 16.40 gal/hr 0.12 gal/nm 10015 msl 160 kts
Thu, Mar 21, 2013     06:58 06:58 0.01 hrs 0.00 hrs 0.00 nm 0.00 gal 0.00 gal/hr 0.00 gal/nm 0 msl 0 kts
Thu, Mar 7, 2013 LSGG LSGG 08:17 08:18 0.03 hrs 0.00 hrs 0.00 nm 0.00 gal 0.00 gal/hr 0.00 gal/nm 0 msl 0 kts
Thu, Mar 7, 2013 LSGG LSGG 07:51 07:53 0.02 hrs 0.00 hrs 0.00 nm 0.00 gal 0.00 gal/hr 0.00 gal/nm 0 msl 0 kts
Tue, Jan 29, 2013 LSZF LSGG 09:18 10:22 1.04 hrs 0.82 hrs 115.87 nm 18.93 gal 18.29 gal/hr 0.16 gal/nm 8286 msl 139 kts
Tue, Jan 29, 2013 LSGG LSZF 07:54 08:57 1.04 hrs 0.65 hrs 124.38 nm 14.37 gal 13.77 gal/hr 0.12 gal/nm 5526 msl 189 kts
Tue, Jan 29, 2013 LSGG LSGG 07:42 07:53 0.19 hrs 0.00 hrs 0.00 nm 0.60 gal 3.25 gal/hr 0.00 gal/nm 0 msl 0 kts
Tue, Jan 29, 2013 LSGG LSGG 06:45 06:47 0.03 hrs 0.00 hrs 0.00 nm 0.00 gal 0.00 gal/hr 0.00 gal/nm 0 msl 0 kts
Sun, Dec 16, 2012 LSGG LSGG 09:30 09:32 0.03 hrs 0.00 hrs 0.00 nm 0.00 gal 0.00 gal/hr 0.00 gal/nm 0 msl 0 kts
Sun, Dec 16, 2012     09:27 09:27 0.01 hrs 0.00 hrs 0.00 nm 0.00 gal 0.00 gal/hr 0.00 gal/nm 0 msl 0 kts
Sat, Dec 1, 2012 LSGG LSGG 14:52 15:39 0.78 hrs 0.35 hrs 51.69 nm 9.30 gal 11.92 gal/hr 0.18 gal/nm 3034 msl 145 kts
Sat, Dec 1, 2012 LSGG LSGG 14:11 14:15 0.06 hrs 0.00 hrs 0.00 nm 0.00 gal 0.00 gal/hr 0.00 gal/nm 0 msl 0 kts
Sun, Nov 18, 2012     09:38 09:39 0.01 hrs 0.00 hrs 0.00 nm 0.00 gal 0.00 gal/hr 0.00 gal/nm 0 msl 0 kts
Sun, Nov 18, 2012 LSGG LSGG 09:36 09:38 0.03 hrs 0.00 hrs 0.00 nm 0.00 gal 0.00 gal/hr 0.00 gal/nm 0 msl 0 kts
Thu, Nov 8, 2012     11:48 11:49 0.02 hrs 0.00 hrs 0.00 nm 0.00 gal 0.00 gal/hr 0.00 gal/nm 0 msl 0 kts
Thu, Oct 25, 2012 LSGG LSGG 09:35 09:40 0.09 hrs 0.00 hrs 0.00 nm 0.00 gal 0.00 gal/hr 0.00 gal/nm 0 msl 0 kts
Sun, Oct 21, 2012 LSZG LSGG 14:15 15:40 1.39 hrs 0.78 hrs 134.58 nm 18.11 gal 13.00 gal/hr 0.13 gal/nm 9010 msl 169 kts
Sun, Oct 21, 2012 LSZG LSZG 11:58 13:20 1.32 hrs 1.03 hrs 169.63 nm 23.09 gal 17.54 gal/hr 0.14 gal/nm 15141 msl 158 kts
Sun, Oct 21, 2012 LSGG LSZG 09:38 10:44 1.08 hrs 0.72 hrs 118.96 nm 15.80 gal 14.63 gal/hr 0.13 gal/nm 10018 msl 161 kts
Sun, Oct 21, 2012 LSGG LSGG 09:24 09:26 0.04 hrs 0.00 hrs 0.00 nm 0.00 gal 0.00 gal/hr 0.00 gal/nm 0 msl 0 kts
Sun, Oct 21, 2012 LSGG LSGG 05:40 06:41 0.98 hrs 0.65 hrs 109.56 nm 18.30 gal 18.74 gal/hr 0.17 gal/nm 10506 msl 159 kts
Sun, Oct 21, 2012 LSGG LSGG 05:26 05:28 0.03 hrs 0.00 hrs 0.00 nm 0.00 gal 0.00 gal/hr 0.00 gal/nm 0 msl 0 kts
Sat, Oct 13, 2012 LSZF LSGG 14:51 15:57 1.08 hrs 0.81 hrs 117.82 nm 18.18 gal 16.83 gal/hr 0.15 gal/nm 9007 msl 142 kts
Sat, Oct 13, 2012 LSTY LSZF 13:06 13:58 0.84 hrs 0.64 hrs 104.93 nm 14.06 gal 16.67 gal/hr 0.13 gal/nm 6511 msl 161 kts
Sat, Oct 13, 2012 LSTY LSTY 12:44 12:47 0.05 hrs 0.00 hrs 0.00 nm 0.00 gal 0.00 gal/hr 0.00 gal/nm 0 msl 0 kts
Sat, Oct 13, 2012 LSGG LSTY 11:22 12:25 1 hrs 0.54 hrs 82.37 nm 13.25 gal 13.25 gal/hr 0.16 gal/nm 5657 msl 142 kts
Fri, Sep 21, 2012 LDZD LSGG 11:13 14:11 2.93 hrs 2.62 hrs 432.76 nm 50.16 gal 17.14 gal/hr 0.12 gal/nm 18008 msl 163 kts
Fri, Sep 21, 2012 LDDU LDZD 09:06 10:36 1.46 hrs 1.05 hrs 166.85 nm 21.90 gal 15.02 gal/hr 0.13 gal/nm 9051 msl 156 kts
Fri, Sep 21, 2012 LDZD LDDU 07:00 08:20 1.32 hrs 0.93 hrs 168.77 nm 21.67 gal 16.48 gal/hr 0.13 gal/nm 7017 msl 178 kts
Thu, Sep 20, 2012 LDZD LDZD 09:42 09:43 0.03 hrs 0.00 hrs 0.00 nm 0.00 gal 0.00 gal/hr 0.00 gal/nm 0 msl 0 kts
Sat, Sep 8, 2012 LDDU LDZD 07:22 08:46 1.38 hrs 1.09 hrs 181.15 nm 21.79 gal 15.85 gal/hr 0.12 gal/nm 8031 msl 165 kts
Sat, Sep 8, 2012 LDZD LDDU 05:19 06:37 1.27 hrs 0.97 hrs 163.65 nm 20.21 gal 15.91 gal/hr 0.12 gal/nm 9144 msl 166 kts
Fri, Sep 7, 2012 LSGG LDZD 09:26 12:54 3.42 hrs 2.47 hrs 468.33 nm 50.87 gal 14.88 gal/hr 0.11 gal/nm 18015 msl 187 kts
Fri, Sep 7, 2012     08:27 08:28 0.01 hrs 0.00 hrs 0.00 nm 0.00 gal 0.00 gal/hr 0.00 gal/nm 0 msl 0 kts
Sat, Sep 1, 2012 LSGG LSGG 11:20 11:22 0.04 hrs 0.00 hrs 0.00 nm 0.00 gal 0.00 gal/hr 0.00 gal/nm 0 msl 0 kts
Sun, Aug 26, 2012 LSGG LSGG 09:25 09:26 0.02 hrs 0.00 hrs 0.00 nm 0.00 gal 0.00 gal/hr 0.00 gal/nm 0 msl 0 kts
Tue, Aug 21, 2012 LFPP LFPP 13:19 13:24 0.07 hrs 0.00 hrs 0.00 nm 0.24 gal 3.29 gal/hr 0.00 gal/nm 0 msl 0 kts
Tue, Aug 21, 2012     13:04 13:05 0.02 hrs 0.00 hrs 0.00 nm 0.04 gal 1.87 gal/hr 0.00 gal/nm 0 msl 0 kts
Tue, Aug 21, 2012 LFPP LFPP 12:53 13:03 0.17 hrs 0.00 hrs 0.00 nm 0.34 gal 2.04 gal/hr 0.00 gal/nm 0 msl 0 kts
Tue, Aug 21, 2012 LFPP LFPP 12:34 12:37 0.05 hrs 0.00 hrs 0.00 nm 0.14 gal 2.78 gal/hr 0.00 gal/nm 0 msl 0 kts
Tue, Aug 21, 2012 LFPP LFPP 12:22 12:33 0.17 hrs 0.00 hrs 0.00 nm 0.72 gal 4.13 gal/hr 0.00 gal/nm 0 msl 0 kts
Tue, Aug 21, 2012 LFPP LFPP 12:18 12:22 0.06 hrs 0.00 hrs 0.00 nm 0.16 gal 2.89 gal/hr 0.00 gal/nm 0 msl 0 kts
Tue, Aug 21, 2012     10:17 10:18 0.01 hrs 0.00 hrs 0.00 nm 0.00 gal 0.00 gal/hr 0.00 gal/nm 0 msl 0 kts
Tue, Aug 21, 2012 LFPP LFPP 09:36 10:00 0.39 hrs 0.00 hrs 0.00 nm 0.00 gal 0.00 gal/hr 0.00 gal/nm 0 msl 0 kts
Tue, Aug 21, 2012     07:42 07:43 0.03 hrs 0.00 hrs 0.00 nm 0.00 gal 0.00 gal/hr 0.00 gal/nm 0 msl 0 kts
Tue, Aug 21, 2012 LFPP LFPP 06:45 07:03 0.3 hrs 0.00 hrs 0.00 nm 0.00 gal 0.00 gal/hr 0.00 gal/nm 0 msl 0 kts
Tue, Aug 21, 2012     06:30 06:30 0.01 hrs 0.00 hrs 0.00 nm 0.00 gal 0.00 gal/hr 0.00 gal/nm 0 msl 0 kts
Tue, Aug 21, 2012     06:25 06:26 0.02 hrs 0.00 hrs 0.00 nm 0.00 gal 0.00 gal/hr 0.00 gal/nm 0 msl 0 kts
Mon, Aug 20, 2012 LFPP LFPP 14:19 14:28 0.14 hrs 0.00 hrs 0.00 nm 0.63 gal 4.42 gal/hr 0.00 gal/nm 0 msl 0 kts
Mon, Aug 20, 2012     09:12 09:12 0.01 hrs 0.00 hrs 0.00 nm 0.00 gal 0.00 gal/hr 0.00 gal/nm 0 msl 0 kts
Mon, Aug 20, 2012     08:36 08:37 0.01 hrs 0.00 hrs 0.00 nm 0.00 gal 0.00 gal/hr 0.00 gal/nm 0 msl 0 kts
Mon, Aug 20, 2012 LSGG LFPP 04:54 07:16 2.31 hrs 1.87 hrs 337.73 nm 40.09 gal 17.33 gal/hr 0.12 gal/nm 15009 msl 177 kts
Mon, Aug 20, 2012 LSGG LSGG 04:49 04:50 0.03 hrs 0.00 hrs 0.00 nm 0.00 gal 0.00 gal/hr 0.00 gal/nm 0 msl 0 kts
Sat, Aug 11, 2012 EDMA LSGG 15:18 17:16 1.93 hrs 1.67 hrs 290.30 nm 33.40 gal 17.32 gal/hr 0.12 gal/nm 9184 msl 172 kts
Sat, Aug 11, 2012 EDMA EDMA 14:32 14:35 0.05 hrs 0.00 hrs 0.00 nm 0.20 gal 4.23 gal/hr 0.00 gal/nm 0 msl 0 kts
Fri, Aug 10, 2012 LSGG EDMA 05:07 06:54 1.75 hrs 1.50 hrs 266.02 nm 29.48 gal 16.85 gal/hr 0.11 gal/nm 10005 msl 174 kts
Fri, Aug 10, 2012     04:46 04:46 0.01 hrs 0.00 hrs 0.00 nm 0.00 gal 0.00 gal/hr 0.00 gal/nm 0 msl 0 kts
Thu, Aug 9, 2012 LSGL LSGG 15:53 16:37 0.72 hrs 0.47 hrs 78.51 nm 10.39 gal 14.37 gal/hr 0.13 gal/nm 7012 msl 163 kts
Thu, Aug 9, 2012 LSZH LSGL 09:12 10:07 0.88 hrs 0.63 hrs 105.53 nm 14.01 gal 15.88 gal/hr 0.13 gal/nm 9011 msl 163 kts
Thu, Aug 9, 2012 LSGS LSZH 06:07 07:04 0.92 hrs 0.69 hrs 117.87 nm 16.49 gal 17.93 gal/hr 0.14 gal/nm 12290 msl 165 kts
Thu, Aug 9, 2012 LSGG LSGS 04:54 05:36 0.69 hrs 0.47 hrs 70.55 nm 9.32 gal 13.48 gal/hr 0.13 gal/nm 3533 msl 146 kts
Thu, Aug 9, 2012     04:36 04:37 0.01 hrs 0.00 hrs 0.00 nm 0.00 gal 0.00 gal/hr 0.00 gal/nm 0 msl 0 kts
Sun, Jul 29, 2012 LSZF LSGG 10:26 11:33 1.08 hrs 0.88 hrs 117.56 nm 19.75 gal 18.28 gal/hr 0.17 gal/nm 9023 msl 130 kts
Sun, Jul 29, 2012 LKMH LSZF 07:22 09:45 2.34 hrs 2.19 hrs 348.97 nm 46.04 gal 19.70 gal/hr 0.13 gal/nm 18004 msl 156 kts
Sun, Jul 29, 2012     06:52 06:53 0.01 hrs 0.00 hrs 0.00 nm 0.00 gal 0.00 gal/hr 0.00 gal/nm 0 msl 0 kts
Fri, Jul 27, 2012 LSZF LKMH 08:23 10:36 2.17 hrs 1.95 hrs 359.04 nm 40.16 gal 18.48 gal/hr 0.11 gal/nm 11906 msl 182 kts
Fri, Jul 27, 2012 LSGG LSZF 06:11 07:11 0.99 hrs 0.73 hrs 123.64 nm 14.49 gal 14.61 gal/hr 0.12 gal/nm 5516 msl 166 kts
Fri, Jul 27, 2012     05:35 05:36 0.01 hrs 0.00 hrs 0.00 nm 0.00 gal 0.00 gal/hr 0.00 gal/nm 0 msl 0 kts
Wed, Jul 18, 2012 EDTG LSGG 16:58 18:05 1.1 hrs 0.90 hrs 138.00 nm 19.17 gal 17.48 gal/hr 0.14 gal/nm 9018 msl 151 kts
Wed, Jul 18, 2012 LSGG EDTG 14:44 15:45 0.99 hrs 0.75 hrs 133.21 nm 14.27 gal 14.46 gal/hr 0.11 gal/nm 7509 msl 172 kts
Wed, Jul 18, 2012 EDTG LSGG 10:05 11:10 1.06 hrs 0.86 hrs 133.65 nm 18.25 gal 17.21 gal/hr 0.14 gal/nm 9013 msl 152 kts
Wed, Jul 18, 2012 LSGL EDTG 08:24 09:11 0.77 hrs 0.62 hrs 105.50 nm 12.81 gal 16.59 gal/hr 0.12 gal/nm 7514 msl 166 kts
Wed, Jul 18, 2012 LSGL LSGL 06:23 07:39 1.23 hrs 1.04 hrs 168.01 nm 26.64 gal 21.63 gal/hr 0.16 gal/nm 15009 msl 158 kts
Wed, Jul 18, 2012 LSGG LSGL 05:33 06:04 0.51 hrs 0.27 hrs 38.81 nm 6.02 gal 11.80 gal/hr 0.16 gal/nm 3513 msl 143 kts
Wed, Jul 18, 2012     05:10 05:11 0.02 hrs 0.00 hrs 0.00 nm 0.00 gal 0.00 gal/hr 0.00 gal/nm 0 msl 0 kts
Wed, Jul 4, 2012     16:01 16:02 0.01 hrs 0.00 hrs 0.00 nm 0.00 gal 0.00 gal/hr 0.00 gal/nm 0 msl 0 kts
Sun, Jun 24, 2012 LSGL LSGG 09:26 10:03 0.6 hrs 0.32 hrs 45.34 nm 8.64 gal 14.44 gal/hr 0.19 gal/nm 6006 msl 139 kts
Sun, Jun 24, 2012 LSGL LSGL 07:49 07:50 0.03 hrs 0.00 hrs 0.00 nm 0.00 gal 0.00 gal/hr 0.00 gal/nm 0 msl 0 kts
Sun, Jun 24, 2012 LSGL LSGL 07:43 07:47 0.07 hrs 0.00 hrs 0.00 nm 0.07 gal 1.07 gal/hr 0.00 gal/nm 0 msl 0 kts
Sun, Jun 24, 2012 LSGL LSGL 07:38 07:42 0.06 hrs 0.00 hrs 0.00 nm 0.11 gal 1.91 gal/hr 0.00 gal/nm 0 msl 0 kts
Sun, Jun 24, 2012 LSGL LSGL 06:18 07:32 1.2 hrs 1.10 hrs 193.46 nm 24.79 gal 20.60 gal/hr 0.13 gal/nm 15012 msl 172 kts
Sun, Jun 24, 2012 LSGG LSGL 05:38 06:06 0.45 hrs 0.22 hrs 35.46 nm 8.24 gal 18.32 gal/hr 0.23 gal/nm 3514 msl 156 kts
Mon, Jun 18, 2012 LSZF LSGG 11:55 12:57 0.99 hrs 0.75 hrs 117.06 nm 16.98 gal 17.12 gal/hr 0.15 gal/nm 9166 msl 150 kts
Mon, Jun 18, 2012 LSGG LSZF 08:59 10:00 1 hrs 0.69 hrs 125.90 nm 14.59 gal 14.57 gal/hr 0.12 gal/nm 5518 msl 180 kts
Mon, Jun 18, 2012     08:45 08:46 0.01 hrs 0.00 hrs 0.00 nm 0.00 gal 0.00 gal/hr 0.00 gal/nm 0 msl 0 kts
Fri, Jun 15, 2012 LSZF LSGG 17:40 18:47 1.08 hrs 0.86 hrs 129.61 nm 19.49 gal 17.99 gal/hr 0.15 gal/nm 9005 msl 148 kts
Fri, Jun 15, 2012 ETSI LSZF 15:43 17:06 1.36 hrs 1.10 hrs 163.00 nm 24.64 gal 18.10 gal/hr 0.15 gal/nm 14006 msl 146 kts
Fri, Jun 15, 2012 LSZF ETSI 06:41 07:56 1.21 hrs 1.01 hrs 194.05 nm 24.13 gal 19.88 gal/hr 0.12 gal/nm 13008 msl 188 kts
Fri, Jun 15, 2012 LSGG LSZF 05:07 06:14 1.09 hrs 0.66 hrs 123.60 nm 15.48 gal 14.16 gal/hr 0.13 gal/nm 5553 msl 185 kts
Fri, Jun 15, 2012     04:45 04:46 0.01 hrs 0.00 hrs 0.00 nm 0.00 gal 0.00 gal/hr 0.00 gal/nm 0 msl 0 kts
Sat, Jun 9, 2012 LFMD LSGG 14:17 16:25 2.09 hrs 1.71 hrs 305.61 nm 41.63 gal 19.95 gal/hr 0.14 gal/nm 14014 msl 174 kts
Sat, Jun 9, 2012 LSGG LFMD 05:39 07:40 1.99 hrs 1.61 hrs 269.35 nm 36.56 gal 18.35 gal/hr 0.14 gal/nm 13009 msl 165 kts
Sat, Jun 9, 2012     04:59 04:59 0 hrs 0.00 hrs 0.00 nm 0.00 gal 0.00 gal/hr 0.00 gal/nm 0 msl 0 kts
Sat, Jun 2, 2012 LSZF LSGG 14:56 15:58 1.02 hrs 0.76 hrs 115.87 nm 18.89 gal 18.55 gal/hr 0.16 gal/nm 9011 msl 151 kts
Sat, Jun 2, 2012 LSZF LSZF 14:18 14:20 0.03 hrs 0.00 hrs 0.00 nm 0.12 gal 3.76 gal/hr 0.00 gal/nm 0 msl 0 kts
Sat, Jun 2, 2012 LSZG LSZF 09:43 10:11 0.47 hrs 0.28 hrs 41.37 nm 6.85 gal 14.58 gal/hr 0.17 gal/nm 4771 msl 145 kts
Sat, Jun 2, 2012 LSGG LSZG 06:22 07:13 0.86 hrs 0.52 hrs 85.54 nm 11.02 gal 12.89 gal/hr 0.13 gal/nm 5506 msl 162 kts
Sat, Jun 2, 2012 LSGG LSGG 06:04 06:05 0.03 hrs 0.00 hrs 0.00 nm 0.00 gal 0.00 gal/hr 0.00 gal/nm 0 msl 0 kts
Sat, May 26, 2012 LSGL LSGG 11:51 12:27 0.58 hrs 0.37 hrs 50.76 nm 7.30 gal 12.51 gal/hr 0.14 gal/nm 3551 msl 136 kts
Sat, May 26, 2012 LSGS LSGL 09:33 10:50 1.26 hrs 1.05 hrs 163.01 nm 24.11 gal 19.09 gal/hr 0.15 gal/nm 6019 msl 153 kts
Sat, May 26, 2012     08:01 08:02 0.01 hrs 0.00 hrs 0.00 nm 0.00 gal 0.00 gal/hr 0.00 gal/nm 0 msl 0 kts
Sat, May 26, 2012 LSGL LSGS 06:47 08:00 1.16 hrs 0.95 hrs 155.80 nm 22.33 gal 19.25 gal/hr 0.14 gal/nm 15020 msl 159 kts
Sat, May 26, 2012 LSGG LSGL 05:41 06:19 0.62 hrs 0.24 hrs 36.06 nm 7.67 gal 12.48 gal/hr 0.21 gal/nm 3518 msl 145 kts
Sat, May 26, 2012 LSGG LSGG 05:25 05:26 0.03 hrs 0.00 hrs 0.00 nm 0.00 gal 0.00 gal/hr 0.00 gal/nm 0 msl 0 kts
Thu, May 17, 2012 LSGS LSGG 08:06 08:57 0.81 hrs 0.62 hrs 96.55 nm 14.17 gal 17.57 gal/hr 0.15 gal/nm 5910 msl 148 kts
Thu, May 17, 2012 LSGG LSGS 05:43 07:14 1.47 hrs 1.07 hrs 171.47 nm 24.39 gal 16.63 gal/hr 0.14 gal/nm 15572 msl 155 kts
Thu, May 17, 2012     05:25 05:26 0.02 hrs 0.00 hrs 0.00 nm 0.00 gal 0.00 gal/hr 0.00 gal/nm 0 msl 0 kts
Fri, May 11, 2012 LSGG LSGG 16:29 17:55 1.38 hrs 0.90 hrs 152.99 nm 23.73 gal 17.24 gal/hr 0.16 gal/nm 16015 msl 163 kts
Fri, May 11, 2012 LSGL LSGG 14:24 14:55 0.51 hrs 0.29 hrs 38.73 nm 6.24 gal 12.24 gal/hr 0.16 gal/nm 3514 msl 133 kts
Fri, May 11, 2012 LSGL LSGL 13:37 13:38 0.03 hrs 0.00 hrs 0.00 nm 0.09 gal 3.60 gal/hr 0.00 gal/nm 0 msl 0 kts
Fri, May 11, 2012 LSGL LSGL 12:00 13:20 1.3 hrs 1.08 hrs 160.88 nm 24.41 gal 18.78 gal/hr 0.15 gal/nm 15280 msl 144 kts
Fri, May 11, 2012 LSGL LSGL 07:57 09:04 1.07 hrs 0.79 hrs 129.33 nm 18.15 gal 16.93 gal/hr 0.14 gal/nm 15012 msl 156 kts
Fri, May 11, 2012 LSGL LSGL 06:31 07:31 0.95 hrs 0.77 hrs 128.23 nm 17.64 gal 18.63 gal/hr 0.14 gal/nm 15020 msl 158 kts
Fri, May 11, 2012 LSGG LSGL 05:35 06:06 0.52 hrs 0.26 hrs 41.35 nm 7.10 gal 13.78 gal/hr 0.17 gal/nm 3506 msl 156 kts
Fri, May 11, 2012     05:09 05:10 0.02 hrs 0.00 hrs 0.00 nm 0.00 gal 0.00 gal/hr 0.00 gal/nm 0 msl 0 kts
Fri, May 11, 2012 LSGG LSGG 05:05 05:06 0.02 hrs 0.00 hrs 0.00 nm 0.00 gal 0.00 gal/hr 0.00 gal/nm 0 msl 0 kts
Fri, May 4, 2012 LSGL LSGG 10:59 11:29 0.5 hrs 0.30 hrs 40.67 nm 5.78 gal 11.68 gal/hr 0.14 gal/nm 3513 msl 135 kts
Fri, May 4, 2012 LSGL LSGL 10:36 10:38 0.03 hrs 0.00 hrs 0.00 nm 0.12 gal 3.68 gal/hr 0.00 gal/nm 0 msl 0 kts
Fri, May 4, 2012 LSZF LSGL 09:27 10:11 0.72 hrs 0.57 hrs 90.14 nm 11.75 gal 16.25 gal/hr 0.13 gal/nm 4624 msl 156 kts
Fri, May 4, 2012 LSGL LSZF 07:05 07:50 0.73 hrs 0.56 hrs 96.22 nm 16.38 gal 22.55 gal/hr 0.17 gal/nm 5824 msl 171 kts
Fri, May 4, 2012 LSGG LSGL 06:04 06:44 0.68 hrs 0.29 hrs 44.27 nm 9.51 gal 14.09 gal/hr 0.21 gal/nm 3518 msl 150 kts
Fri, May 4, 2012     05:22 05:22 0.01 hrs 0.00 hrs 0.00 nm 0.00 gal 0.00 gal/hr 0.00 gal/nm 0 msl 0 kts
Fri, May 4, 2012     05:20 05:21 0.02 hrs 0.00 hrs 0.00 nm 0.00 gal 0.00 gal/hr 0.00 gal/nm 0 msl 0 kts
Fri, Apr 6, 2012 LFPP LSGG 11:55 13:38 1.69 hrs 1.47 hrs 252.21 nm 30.20 gal 17.85 gal/hr 0.12 gal/nm 11006 msl 170 kts
Fri, Apr 6, 2012     11:51 11:53 0.02 hrs 0.00 hrs 0.00 nm 0.07 gal 3.30 gal/hr 0.00 gal/nm 0 msl 0 kts
Fri, Apr 6, 2012 LFPP LFPP 11:19 11:23 0.08 hrs 0.00 hrs 0.00 nm 0.23 gal 2.95 gal/hr 0.00 gal/nm 0 msl 0 kts
Fri, Apr 6, 2012     10:41 10:42 0.01 hrs 0.00 hrs 0.00 nm 0.00 gal 0.00 gal/hr 0.00 gal/nm 0 msl 0 kts
Fri, Apr 6, 2012 LFPP LFPP 07:52 08:06 0.24 hrs 0.00 hrs 0.00 nm 1.12 gal 4.70 gal/hr 0.00 gal/nm 0 msl 0 kts
Fri, Mar 23, 2012 LFPP LFPP 12:38 12:42 0.07 hrs 0.00 hrs 0.00 nm 0.19 gal 2.90 gal/hr 0.00 gal/nm 0 msl 0 kts
Fri, Mar 23, 2012 LFPP LFPP 10:47 10:49 0.04 hrs 0.00 hrs 0.00 nm 0.11 gal 2.78 gal/hr 0.00 gal/nm 0 msl 0 kts
Fri, Mar 23, 2012     08:26 08:26 0.01 hrs 0.00 hrs 0.00 nm 0.00 gal 0.00 gal/hr 0.00 gal/nm 0 msl 0 kts
Tue, Mar 20, 2012     10:41 10:42 0.02 hrs 0.00 hrs 0.00 nm 0.00 gal 0.00 gal/hr 0.00 gal/nm 0 msl 0 kts
Mon, Mar 19, 2012 LFPP LFPP 15:34 15:38 0.08 hrs 0.00 hrs 0.00 nm 0.00 gal 0.00 gal/hr 0.00 gal/nm 0 msl 0 kts
Mon, Mar 19, 2012     13:59 14:01 0.03 hrs 0.00 hrs 0.00 nm 0.00 gal 0.00 gal/hr 0.00 gal/nm 0 msl 0 kts
Mon, Mar 19, 2012     13:57 13:58 0.01 hrs 0.00 hrs 0.00 nm 0.00 gal 0.00 gal/hr 0.00 gal/nm 0 msl 0 kts
Mon, Mar 19, 2012     13:56 13:56 0.01 hrs 0.00 hrs 0.00 nm 0.00 gal 0.00 gal/hr 0.00 gal/nm 0 msl 0 kts
Mon, Mar 19, 2012     13:13 13:14 0.01 hrs 0.00 hrs 0.00 nm 0.00 gal 0.00 gal/hr 0.00 gal/nm 0 msl 0 kts
Mon, Mar 19, 2012     10:59 11:00 0.02 hrs 0.00 hrs 0.00 nm 0.00 gal 0.00 gal/hr 0.00 gal/nm 0 msl 0 kts
Fri, Mar 16, 2012 LFPP LFPP 15:23 15:37 0.22 hrs 0.00 hrs 0.00 nm 0.83 gal 3.76 gal/hr 0.00 gal/nm 0 msl 0 kts
Thu, Mar 15, 2012 LFPP LFPP 13:07 13:08 0.03 hrs 0.00 hrs 0.00 nm 0.00 gal 0.00 gal/hr 0.00 gal/nm 0 msl 0 kts
Wed, Mar 14, 2012 LSGG LFPP 13:55 15:43 1.77 hrs 1.40 hrs 238.32 nm 28.66 gal 16.21 gal/hr 0.12 gal/nm 10011 msl 168 kts
Wed, Mar 14, 2012     13:31 13:32 0.02 hrs 0.00 hrs 0.00 nm 0.00 gal 0.00 gal/hr 0.00 gal/nm 0 msl 0 kts
Fri, Mar 2, 2012 LSZF LSGG 16:38 17:40 1 hrs 0.78 hrs 120.03 nm 15.76 gal 15.70 gal/hr 0.13 gal/nm 8267 msl 152 kts
Fri, Mar 2, 2012 LSZF LSZF 16:10 16:12 0.04 hrs 0.00 hrs 0.00 nm 0.13 gal 3.42 gal/hr 0.00 gal/nm 0 msl 0 kts
Fri, Mar 2, 2012     13:37 13:38 0.02 hrs 0.00 hrs 0.00 nm 0.00 gal 0.00 gal/hr 0.00 gal/nm 0 msl 0 kts
Fri, Mar 2, 2012 LSGG LSZF 11:09 12:08 0.97 hrs 0.72 hrs 123.28 nm 14.50 gal 14.92 gal/hr 0.12 gal/nm 5509 msl 168 kts
Fri, Mar 2, 2012 LSGG LSGG 08:27 10:52 2.37 hrs 1.92 hrs 299.97 nm 43.08 gal 18.16 gal/hr 0.14 gal/nm 15029 msl 153 kts
Fri, Mar 2, 2012     08:05 08:06 0.01 hrs 0.00 hrs 0.00 nm 0.00 gal 0.00 gal/hr 0.00 gal/nm 0 msl 0 kts
Thu, Mar 1, 2012 LSGS LSGG 14:48 15:59 1.17 hrs 0.52 hrs 81.49 nm 15.24 gal 13.04 gal/hr 0.19 gal/nm 14013 msl 154 kts
Thu, Mar 1, 2012 LSGS LSGS 14:40 14:45 0.08 hrs 0.00 hrs 0.00 nm 0.06 gal 0.71 gal/hr 0.00 gal/nm 0 msl 0 kts
Thu, Mar 1, 2012     14:37 14:38 0.01 hrs 0.00 hrs 0.00 nm 0.00 gal 0.00 gal/hr 0.00 gal/nm 0 msl 0 kts
Thu, Mar 1, 2012 LSGG LSGS 13:05 13:59 0.89 hrs 0.49 hrs 79.35 nm 11.71 gal 13.20 gal/hr 0.15 gal/nm 4530 msl 156 kts
Thu, Mar 1, 2012     12:39 12:40 0.02 hrs 0.00 hrs 0.00 nm 0.00 gal 0.00 gal/hr 0.00 gal/nm 0 msl 0 kts
Thu, Mar 1, 2012     12:35 12:35 0.01 hrs 0.00 hrs 0.00 nm 0.00 gal 0.00 gal/hr 0.00 gal/nm 0 msl 0 kts
Thu, Jan 12, 2012 LFPP LSGG 12:55 14:28 1.54 hrs 1.28 hrs 249.99 nm 27.65 gal 17.99 gal/hr 0.11 gal/nm 12009 msl 194 kts
Thu, Jan 12, 2012 LFPP LFPP 11:43 11:46 0.06 hrs 0.00 hrs 0.00 nm 0.17 gal 3.05 gal/hr 0.00 gal/nm 0 msl 0 kts
Thu, Jan 12, 2012 LFAQ LFPP 10:38 11:29 0.83 hrs 0.56 hrs 73.19 nm 10.68 gal 12.84 gal/hr 0.15 gal/nm 2338 msl 129 kts
Thu, Jan 12, 2012 LFPP LFAQ 09:09 10:20 1.16 hrs 0.83 hrs 105.68 nm 15.28 gal 13.16 gal/hr 0.14 gal/nm 2503 msl 124 kts
Thu, Jan 12, 2012 LFPP LFPP 08:54 08:56 0.02 hrs 0.00 hrs 0.00 nm 0.00 gal 0.00 gal/hr 0.00 gal/nm 0 msl 0 kts
Thu, Jan 12, 2012 LFPP LFPP 08:15 08:16 0.03 hrs 0.00 hrs 0.00 nm 0.00 gal 0.00 gal/hr 0.00 gal/nm 0 msl 0 kts
Thu, Jan 12, 2012     07:57 07:57 0.01 hrs 0.00 hrs 0.00 nm 0.00 gal 0.00 gal/hr 0.00 gal/nm 0 msl 0 kts
Wed, Jan 11, 2012 LFPP LFPP 08:27 08:41 0.21 hrs 0.00 hrs 0.00 nm 1.70 gal 8.29 gal/hr 0.00 gal/nm 0 msl 0 kts
Tue, Dec 6, 2011 LFPP LFPP 11:38 11:48 0.15 hrs 0.00 hrs 0.00 nm 0.41 gal 2.70 gal/hr 0.00 gal/nm 0 msl 0 kts
Fri, Dec 2, 2011     15:49 15:49 0.01 hrs 0.00 hrs 0.00 nm 0.04 gal 7.03 gal/hr 0.00 gal/nm 0 msl 0 kts
Thu, Nov 24, 2011     07:23 07:23 0.01 hrs 0.00 hrs 0.00 nm 0.00 gal 0.00 gal/hr 0.00 gal/nm 0 msl 0 kts
Thu, Nov 17, 2011 LFPP LFPP 10:54 11:05 0.19 hrs 0.00 hrs 0.00 nm 1.02 gal 5.51 gal/hr 0.00 gal/nm 0 msl 0 kts
Mon, Nov 14, 2011     09:58 10:07 0.15 hrs 0.00 hrs 0.00 nm 0.00 gal 0.00 gal/hr 0.00 gal/nm 0 msl 0 kts
Mon, Nov 14, 2011     09:41 09:41 0.01 hrs 0.00 hrs 0.00 nm 0.00 gal 0.00 gal/hr 0.00 gal/nm 0 msl 0 kts
Wed, Nov 9, 2011 LFPP LFPP 15:11 15:23 0.21 hrs 0.00 hrs 0.00 nm 1.24 gal 6.06 gal/hr 0.00 gal/nm 0 msl 0 kts
Wed, Nov 9, 2011 LSGG LFPP 12:51 14:36 1.73 hrs 1.38 hrs 240.64 nm 28.04 gal 16.23 gal/hr 0.12 gal/nm 12014 msl 174 kts
Wed, Nov 9, 2011     11:52 11:52 0.02 hrs 0.00 hrs 0.00 nm 0.00 gal 0.00 gal/hr 0.00 gal/nm 0 msl 0 kts
Sun, Oct 30, 2011     16:57 16:57 0.01 hrs 0.00 hrs 0.00 nm 0.00 gal 0.00 gal/hr 0.00 gal/nm 0 msl 0 kts
Sun, Oct 30, 2011 LSZG LSGG 13:02 13:56 0.87 hrs 0.66 hrs 102.39 nm 13.80 gal 15.83 gal/hr 0.13 gal/nm 4719 msl 153 kts
Sun, Oct 30, 2011 LSGG LSZG 10:42 11:38 0.92 hrs 0.55 hrs 79.98 nm 11.95 gal 13.02 gal/hr 0.15 gal/nm 4504 msl 144 kts
Sun, Oct 30, 2011     10:24 10:24 0.01 hrs 0.00 hrs 0.00 nm 0.00 gal 0.00 gal/hr 0.00 gal/nm 0 msl 0 kts
Sun, Oct 23, 2011 LSZY LSGG 13:53 14:47 0.89 hrs 0.63 hrs 102.55 nm 17.31 gal 19.48 gal/hr 0.17 gal/nm 8004 msl 160 kts
Sun, Oct 23, 2011 LSGG LSZY 11:37 12:44 1.08 hrs 0.65 hrs 96.42 nm 14.17 gal 13.17 gal/hr 0.15 gal/nm 7505 msl 144 kts
Sun, Oct 23, 2011 LSGG LSGG 09:24 09:26 0.03 hrs 0.00 hrs 0.00 nm 0.00 gal 0.00 gal/hr 0.00 gal/nm 0 msl 0 kts
Sun, Oct 16, 2011     09:11 09:12 0.01 hrs 0.00 hrs 0.00 nm 0.00 gal 0.00 gal/hr 0.00 gal/nm 0 msl 0 kts
Mon, Sep 26, 2011 LSGG LSGG 14:19 15:39 1.29 hrs 0.91 hrs 130.04 nm 21.11 gal 16.32 gal/hr 0.16 gal/nm 13004 msl 139 kts
Sun, Sep 25, 2011     09:20 09:21 0.01 hrs 0.00 hrs 0.00 nm 0.00 gal 0.00 gal/hr 0.00 gal/nm 0 msl 0 kts
Sun, Sep 25, 2011 LSGG LSGG 09:18 09:19 0.03 hrs 0.00 hrs 0.00 nm 0.00 gal 0.00 gal/hr 0.00 gal/nm 0 msl 0 kts
Sun, Aug 28, 2011 LSZG LSGG 13:53 14:50 0.94 hrs 0.62 hrs 93.12 nm 14.29 gal 15.15 gal/hr 0.15 gal/nm 9016 msl 148 kts
Sun, Aug 28, 2011 LFKC LSZG 10:26 12:47 2.31 hrs 1.98 hrs 331.38 nm 47.71 gal 20.68 gal/hr 0.14 gal/nm 15006 msl 165 kts
Sun, Aug 28, 2011     10:19 10:19 0.01 hrs 0.00 hrs 0.00 nm 0.00 gal 0.00 gal/hr 0.00 gal/nm 0 msl 0 kts
Sat, Aug 27, 2011 LFKF LFKC 15:38 16:40 1.01 hrs 0.72 hrs 93.46 nm 14.06 gal 13.90 gal/hr 0.15 gal/nm 3005 msl 126 kts
Sat, Aug 27, 2011 LDDU LFKF 06:51 10:02 3.13 hrs 2.83 hrs 429.09 nm 53.23 gal 17.01 gal/hr 0.12 gal/nm 12011 msl 150 kts
Fri, Aug 26, 2011 LSZG LDDU 07:12 10:52 3.61 hrs 3.37 hrs 572.83 nm 63.36 gal 17.56 gal/hr 0.11 gal/nm 18017 msl 168 kts
Fri, Aug 26, 2011 LSGG LSZG 05:44 06:33 0.8 hrs 0.56 hrs 86.17 nm 10.19 gal 12.74 gal/hr 0.12 gal/nm 4509 msl 152 kts
Fri, Aug 26, 2011 LSGG LSGG 05:16 05:29 0.21 hrs 0.00 hrs 0.00 nm 0.00 gal 0.00 gal/hr 0.00 gal/nm 0 msl 0 kts
Fri, Aug 26, 2011     05:05 05:06 0.02 hrs 0.00 hrs 0.00 nm 0.00 gal 0.00 gal/hr 0.00 gal/nm 0 msl 0 kts
Thu, Aug 25, 2011 LSZF LSGG 08:20 09:28 1.11 hrs 0.85 hrs 126.25 nm 15.95 gal 14.33 gal/hr 0.13 gal/nm 9008 msl 146 kts
Thu, Aug 25, 2011     08:15 08:16 0.02 hrs 0.00 hrs 0.00 nm 0.00 gal 0.00 gal/hr 0.00 gal/nm 0 msl 0 kts
Wed, Aug 24, 2011 LSGL LSZF 11:17 12:09 0.85 hrs 0.60 hrs 94.30 nm 11.16 gal 13.18 gal/hr 0.12 gal/nm 5516 msl 155 kts
Wed, Aug 24, 2011 LSGG LSGL 07:01 07:30 0.48 hrs 0.30 hrs 41.49 nm 5.56 gal 11.50 gal/hr 0.13 gal/nm 3519 msl 136 kts
Wed, Aug 24, 2011 LSGG LSGG 05:07 06:22 1.22 hrs 0.95 hrs 156.57 nm 26.60 gal 21.75 gal/hr 0.17 gal/nm 15019 msl 160 kts
Tue, Aug 16, 2011 LFGJ LSGG 14:13 15:03 0.84 hrs 0.57 hrs 81.85 nm 11.75 gal 14.04 gal/hr 0.14 gal/nm 8163 msl 142 kts
Tue, Aug 16, 2011 EDLT LFGJ 11:11 13:28 2.25 hrs 2.03 hrs 336.25 nm 38.64 gal 17.16 gal/hr 0.11 gal/nm 14020 msl 164 kts
Tue, Aug 16, 2011 LSGG EDLT 06:44 09:28 2.69 hrs 2.38 hrs 423.64 nm 47.74 gal 17.78 gal/hr 0.11 gal/nm 16008 msl 175 kts
Tue, Aug 16, 2011     06:27 06:27 0.01 hrs 0.00 hrs 0.00 nm 0.00 gal 0.00 gal/hr 0.00 gal/nm 0 msl 0 kts
Tue, Aug 2, 2011 LFGJ LSGG 15:32 16:23 0.83 hrs 0.55 hrs 89.33 nm 14.32 gal 17.32 gal/hr 0.16 gal/nm 12012 msl 157 kts
Tue, Aug 2, 2011 LSGE LFGJ 14:17 15:02 0.74 hrs 0.53 hrs 78.02 nm 12.17 gal 16.55 gal/hr 0.16 gal/nm 10008 msl 142 kts
Tue, Aug 2, 2011 LSGL LSGL 11:08 11:45 0.59 hrs 0.35 hrs 46.40 nm 8.30 gal 13.99 gal/hr 0.18 gal/nm 5782 msl 129 kts
Tue, Aug 2, 2011 LSGL LSGL 08:33 09:40 1.09 hrs 0.89 hrs 131.21 nm 18.30 gal 16.81 gal/hr 0.14 gal/nm 16018 msl 146 kts
Tue, Aug 2, 2011 LSGL LSGL 07:12 08:20 1.08 hrs 0.89 hrs 142.63 nm 23.25 gal 21.52 gal/hr 0.16 gal/nm 16163 msl 154 kts
Tue, Aug 2, 2011 LSGG LSGL 06:10 06:44 0.55 hrs 0.30 hrs 39.23 nm 6.47 gal 11.73 gal/hr 0.16 gal/nm 3542 msl 129 kts
Tue, Aug 2, 2011     04:53 04:54 0.02 hrs 0.00 hrs 0.00 nm 0.00 gal 0.00 gal/hr 0.00 gal/nm 0 msl 0 kts
Fri, Jul 29, 2011 LSGG LSGG 08:45 08:52 0.11 hrs 0.00 hrs 0.00 nm 0.00 gal 0.00 gal/hr 0.00 gal/nm 0 msl 0 kts
Mon, Jul 18, 2011 LSGG LSGG 18:09 18:58 0.8 hrs 0.45 hrs 67.90 nm 11.14 gal 13.92 gal/hr 0.16 gal/nm 7013 msl 145 kts
Mon, Jul 18, 2011     17:57 17:57 0.01 hrs 0.00 hrs 0.00 nm 0.00 gal 0.00 gal/hr 0.00 gal/nm 0 msl 0 kts
Sat, Jul 2, 2011 LSZF LSGG 15:36 16:37 1 hrs 0.79 hrs 124.84 nm 14.81 gal 14.78 gal/hr 0.12 gal/nm 6510 msl 155 kts
Sat, Jul 2, 2011 LSGG LSZF 05:54 07:04 1.13 hrs 0.83 hrs 120.29 nm 14.96 gal 13.20 gal/hr 0.12 gal/nm 5538 msl 142 kts
Sat, Jul 2, 2011     05:36 05:36 0.01 hrs 0.00 hrs 0.00 nm 0.00 gal 0.00 gal/hr 0.00 gal/nm 0 msl 0 kts
Fri, Jul 1, 2011 LSGG LSGG 12:22 12:26 0.06 hrs 0.00 hrs 0.00 nm 0.00 gal 0.00 gal/hr 0.00 gal/nm 0 msl 0 kts
Fri, Jul 1, 2011 LSGG LSGG 12:15 12:17 0.02 hrs 0.00 hrs 0.00 nm 0.00 gal 0.00 gal/hr 0.00 gal/nm 0 msl 0 kts
Fri, Jul 1, 2011 ETSI LSGG 07:47 10:04 2.25 hrs 1.99 hrs 317.95 nm 38.42 gal 17.10 gal/hr 0.12 gal/nm 16112 msl 158 kts
Fri, Jul 1, 2011 LSGG ETSI 05:23 07:18 1.91 hrs 1.61 hrs 294.23 nm 32.33 gal 16.95 gal/hr 0.11 gal/nm 14014 msl 182 kts
Fri, Jul 1, 2011 LSGG LSGG 04:37 04:40 0.04 hrs 0.00 hrs 0.00 nm 0.00 gal 0.00 gal/hr 0.00 gal/nm 0 msl 0 kts
Fri, Jul 1, 2011     04:25 04:25 0.01 hrs 0.00 hrs 0.00 nm 0.00 gal 0.00 gal/hr 0.00 gal/nm 0 msl 0 kts
Fri, Jul 1, 2011     04:20 04:21 0.02 hrs 0.00 hrs 0.00 nm 0.00 gal 0.00 gal/hr 0.00 gal/nm 0 msl 0 kts
Fri, Jul 1, 2011 LSGG LSGG 04:16 04:18 0.04 hrs 0.00 hrs 0.00 nm 0.00 gal 0.00 gal/hr 0.00 gal/nm 0 msl 0 kts
Sun, Jun 26, 2011 LSGN LSGG 09:44 10:34 0.82 hrs 0.65 hrs 104.14 nm 13.62 gal 16.68 gal/hr 0.13 gal/nm 8278 msl 160 kts
Sun, Jun 26, 2011 LSGN LSGN 07:29 09:07 1.6 hrs 1.37 hrs 228.26 nm 33.38 gal 20.82 gal/hr 0.15 gal/nm 16051 msl 164 kts
Sun, Jun 26, 2011 LSGG LSGN 06:09 07:03 0.89 hrs 0.65 hrs 86.75 nm 10.57 gal 11.83 gal/hr 0.12 gal/nm 5504 msl 134 kts
Sun, Jun 26, 2011 LSGG LSGG 05:42 05:43 0.02 hrs 0.00 hrs 0.00 nm 0.00 gal 0.00 gal/hr 0.00 gal/nm 0 msl 0 kts
Sun, Jun 26, 2011 LSGG LSGG 05:39 05:39 0.01 hrs 0.00 hrs 0.00 nm 0.00 gal 0.00 gal/hr 0.00 gal/nm 0 msl 0 kts
Sun, Jun 26, 2011 LSGG LSGG 05:37 05:38 0.02 hrs 0.00 hrs 0.00 nm 0.00 gal 0.00 gal/hr 0.00 gal/nm 0 msl 0 kts
Sun, Jun 12, 2011 LSGG LSGG 10:48 10:49 0.03 hrs 0.00 hrs 0.00 nm 0.00 gal 0.00 gal/hr 0.00 gal/nm 0 msl 0 kts
Sun, Jun 12, 2011     10:40 10:41 0.01 hrs 0.00 hrs 0.00 nm 0.00 gal 0.00 gal/hr 0.00 gal/nm 0 msl 0 kts
Sun, Jun 12, 2011 ETUL LSGG 07:23 09:57 2.51 hrs 2.20 hrs 383.09 nm 40.56 gal 16.14 gal/hr 0.11 gal/nm 15007 msl 172 kts
Sun, Jun 12, 2011     07:15 07:15 0.01 hrs 0.00 hrs 0.00 nm 0.00 gal 0.00 gal/hr 0.00 gal/nm 0 msl 0 kts
Sat, Jun 11, 2011 ETUL ETUL 09:55 09:57 0.03 hrs 0.00 hrs 0.00 nm 0.00 gal 0.00 gal/hr 0.00 gal/nm 0 msl 0 kts
Sat, Jun 11, 2011 LKVO ETUL 06:35 09:08 2.53 hrs 2.26 hrs 373.64 nm 44.54 gal 17.64 gal/hr 0.12 gal/nm 18010 msl 165 kts
Sat, Jun 11, 2011     06:18 06:19 0.02 hrs 0.00 hrs 0.00 nm 0.00 gal 0.00 gal/hr 0.00 gal/nm 0 msl 0 kts
Fri, Jun 10, 2011 EDMA LKVO 14:34 16:04 1.48 hrs 1.07 hrs 189.75 nm 25.94 gal 17.50 gal/hr 0.14 gal/nm 13007 msl 175 kts
Fri, Jun 10, 2011     14:27 14:27 0.01 hrs 0.00 hrs 0.00 nm 0.00 gal 0.00 gal/hr 0.00 gal/nm 0 msl 0 kts
Fri, Jun 10, 2011 LSZF EDMA 06:43 08:00 1.27 hrs 1.07 hrs 175.04 nm 22.97 gal 18.08 gal/hr 0.13 gal/nm 13041 msl 162 kts
Fri, Jun 10, 2011 LSGG LSZF 04:56 06:08 1.2 hrs 0.82 hrs 123.26 nm 14.68 gal 12.25 gal/hr 0.12 gal/nm 5505 msl 150 kts
Fri, Jun 10, 2011 LSGG LSGG 04:34 04:40 0.1 hrs 0.00 hrs 0.00 nm 0.00 gal 0.00 gal/hr 0.00 gal/nm 0 msl 0 kts
Thu, Jun 9, 2011 LSGG LSGG 10:36 10:42 0.1 hrs 0.00 hrs 0.00 nm 0.00 gal 0.00 gal/hr 0.00 gal/nm 0 msl 0 kts
Thu, Jun 9, 2011 LSGG LSGG 09:34 09:42 0.13 hrs 0.00 hrs 0.00 nm 0.00 gal 0.00 gal/hr 0.00 gal/nm 0 msl 0 kts
Thu, Jun 9, 2011 LSGG LSGG 07:52 08:19 0.44 hrs 0.00 hrs 0.00 nm 0.00 gal 0.00 gal/hr 0.00 gal/nm 0 msl 0 kts
Thu, Jun 9, 2011 LSGG LSGG 07:49 07:50 0.03 hrs 0.00 hrs 0.00 nm 0.00 gal 0.00 gal/hr 0.00 gal/nm 0 msl 0 kts
Thu, Jun 9, 2011 LSGG LSGG 07:45 07:48 0.05 hrs 0.00 hrs 0.00 nm 0.00 gal 0.00 gal/hr 0.00 gal/nm 0 msl 0 kts
Wed, May 25, 2011 LFPP LSGG 15:10 16:58 1.76 hrs 1.57 hrs 261.33 nm 30.72 gal 17.47 gal/hr 0.12 gal/nm 12012 msl 164 kts
Wed, May 25, 2011 LFPP LFPP 14:54 14:59 0.08 hrs 0.00 hrs 0.00 nm 0.04 gal 0.54 gal/hr 0.00 gal/nm 0 msl 0 kts
Wed, May 25, 2011 LFPP LFPP 14:39 14:47 0.14 hrs 0.00 hrs 0.00 nm 0.90 gal 6.59 gal/hr 0.00 gal/nm 0 msl 0 kts
Wed, May 25, 2011     14:10 14:11 0.01 hrs 0.00 hrs 0.00 nm 0.00 gal 0.00 gal/hr 0.00 gal/nm 0 msl 0 kts
Wed, May 25, 2011     12:20 12:20 0.01 hrs 0.00 hrs 0.00 nm 0.00 gal 0.00 gal/hr 0.00 gal/nm 0 msl 0 kts
Wed, May 25, 2011     12:15 12:16 0.02 hrs 0.00 hrs 0.00 nm 0.00 gal 0.00 gal/hr 0.00 gal/nm 0 msl 0 kts
Wed, May 25, 2011     12:12 12:13 0.02 hrs 0.00 hrs 0.00 nm 0.00 gal 0.00 gal/hr 0.00 gal/nm 0 msl 0 kts
Wed, May 25, 2011     11:36 11:37 0.02 hrs 0.00 hrs 0.00 nm 0.00 gal 0.00 gal/hr 0.00 gal/nm 0 msl 0 kts
Wed, May 25, 2011 LFPP LFPP 10:08 10:22 0.24 hrs 0.00 hrs 0.00 nm 1.36 gal 5.65 gal/hr 0.00 gal/nm 0 msl 0 kts
Wed, May 25, 2011 LFPP LFPP 09:50 09:52 0.03 hrs 0.00 hrs 0.00 nm 0.00 gal 0.00 gal/hr 0.00 gal/nm 0 msl 0 kts
Wed, May 25, 2011 LFQB LFPP 08:53 09:40 0.76 hrs 0.54 hrs 75.94 nm 10.41 gal 13.73 gal/hr 0.14 gal/nm 2524 msl 137 kts
Wed, May 25, 2011 LSGG LFQB 06:52 08:16 1.37 hrs 1.12 hrs 183.13 nm 22.21 gal 16.21 gal/hr 0.12 gal/nm 12011 msl 161 kts
Wed, May 25, 2011     06:15 06:15 0.01 hrs 0.00 hrs 0.00 nm 0.00 gal 0.00 gal/hr 0.00 gal/nm 0 msl 0 kts
Sat, May 21, 2011 LFSB LSGG 07:39 09:00 1.33 hrs 0.94 hrs 160.70 nm 19.70 gal 14.87 gal/hr 0.12 gal/nm 11011 msl 168 kts
Sat, May 21, 2011 LSGG LFSB 05:44 06:54 1.13 hrs 0.77 hrs 130.19 nm 18.90 gal 16.68 gal/hr 0.15 gal/nm 14012 msl 165 kts
Sat, May 21, 2011     05:41 05:43 0.02 hrs 0.00 hrs 0.00 nm 0.00 gal 0.00 gal/hr 0.00 gal/nm 0 msl 0 kts
Sat, May 7, 2011 LSZF LSGG 14:02 15:19 1.27 hrs 0.93 hrs 154.67 nm 21.64 gal 17.06 gal/hr 0.14 gal/nm 9292 msl 163 kts
Sat, May 7, 2011 LSGG LSZF 12:17 13:16 0.96 hrs 0.72 hrs 119.12 nm 14.43 gal 14.97 gal/hr 0.12 gal/nm 8128 msl 163 kts
Sat, May 7, 2011 LSZG LSGG 09:15 10:22 1.11 hrs 0.73 hrs 105.98 nm 14.84 gal 13.43 gal/hr 0.14 gal/nm 4663 msl 142 kts
Sat, May 7, 2011 LSGG LSZG 06:47 07:39 0.86 hrs 0.58 hrs 92.77 nm 12.72 gal 14.74 gal/hr 0.14 gal/nm 5506 msl 157 kts
Sat, May 7, 2011     06:25 06:25 0.01 hrs 0.00 hrs 0.00 nm 0.00 gal 0.00 gal/hr 0.00 gal/nm 0 msl 0 kts
Thu, May 5, 2011 LSGG LSGG 14:38 16:21 1.67 hrs 1.38 hrs 228.32 nm 38.64 gal 23.21 gal/hr 0.17 gal/nm 15016 msl 159 kts
Thu, May 5, 2011 LSGG LSGG 12:52 12:54 0.05 hrs 0.00 hrs 0.00 nm 0.00 gal 0.00 gal/hr 0.00 gal/nm 0 msl 0 kts
Thu, May 5, 2011 LSGG LSGG 12:46 12:49 0.05 hrs 0.00 hrs 0.00 nm 0.15 gal 2.84 gal/hr 0.00 gal/nm 0 msl 0 kts
Thu, May 5, 2011 LSGG LSGG 12:40 12:45 0.09 hrs 0.00 hrs 0.00 nm 0.28 gal 3.32 gal/hr 0.00 gal/nm 0 msl 0 kts
Thu, May 5, 2011 LSGG LSGG 12:28 12:29 0.03 hrs 0.00 hrs 0.00 nm 0.00 gal 0.00 gal/hr 0.00 gal/nm 0 msl 0 kts
Tue, May 3, 2011 LSGG LSGG 18:31 19:35 1.05 hrs 0.00 hrs 0.00 nm 0.00 gal 0.00 gal/hr 0.00 gal/nm 0 msl 0 kts
Fri, Apr 29, 2011 LSGG LSGG 16:17 16:29 0.19 hrs 0.00 hrs 0.00 nm 0.00 gal 0.00 gal/hr 0.00 gal/nm 0 msl 0 kts
Mon, Apr 25, 2011     14:32 14:32 0.01 hrs 0.00 hrs 0.00 nm 0.00 gal 0.00 gal/hr 0.00 gal/nm 0 msl 0 kts
Mon, Apr 25, 2011 LSZG LSGG 13:29 14:31 1.01 hrs 0.71 hrs 122.42 nm 15.87 gal 15.66 gal/hr 0.13 gal/nm 9016 msl 170 kts
Mon, Apr 25, 2011 LSGG LSZG 11:43 12:54 1.17 hrs 0.85 hrs 122.55 nm 16.02 gal 13.75 gal/hr 0.13 gal/nm 10010 msl 143 kts
Mon, Apr 25, 2011 LSGG LSGG 11:27 11:32 0.09 hrs 0.00 hrs 0.00 nm 0.00 gal 0.00 gal/hr 0.00 gal/nm 0 msl 0 kts
Mon, Apr 25, 2011 LSGG LSGG 11:17 11:19 0.05 hrs 0.00 hrs 0.00 nm 0.00 gal 0.00 gal/hr 0.00 gal/nm 0 msl 0 kts
Mon, Apr 25, 2011     11:02 11:03 0.01 hrs 0.00 hrs 0.00 nm 0.00 gal 0.00 gal/hr 0.00 gal/nm 0 msl 0 kts
Fri, Apr 22, 2011 LSGG LSGG 16:07 16:12 0.09 hrs 0.00 hrs 0.00 nm 0.00 gal 0.00 gal/hr 0.00 gal/nm 0 msl 0 kts
Fri, Apr 22, 2011 LFPP LSGG 12:21 14:06 1.72 hrs 1.50 hrs 253.78 nm 32.26 gal 18.74 gal/hr 0.13 gal/nm 15010 msl 168 kts
Fri, Apr 22, 2011 LFPP LFPP 12:11 12:15 0.07 hrs 0.00 hrs 0.00 nm 0.00 gal 0.00 gal/hr 0.00 gal/nm 0 msl 0 kts
Fri, Apr 22, 2011 LFPP LFPP 11:55 11:56 0.03 hrs 0.00 hrs 0.00 nm 0.00 gal 0.00 gal/hr 0.00 gal/nm 0 msl 0 kts
Fri, Apr 22, 2011     10:50 10:52 0.02 hrs 0.00 hrs 0.00 nm 0.00 gal 0.00 gal/hr 0.00 gal/nm 0 msl 0 kts
Fri, Apr 22, 2011 LFAQ LFPP 10:03 10:45 0.68 hrs 0.55 hrs 76.72 nm 10.40 gal 15.40 gal/hr 0.14 gal/nm 1535 msl 134 kts
Fri, Apr 22, 2011 LFAQ LFAQ 09:52 10:03 0.17 hrs 0.00 hrs 0.00 nm 0.53 gal 3.21 gal/hr 0.00 gal/nm 0 msl 0 kts
Fri, Apr 22, 2011 LFPP LFAQ 08:13 09:35 1.33 hrs 1.02 hrs 132.08 nm 18.89 gal 14.22 gal/hr 0.14 gal/nm 2219 msl 126 kts
Fri, Apr 22, 2011 LFPP LFPP 07:59 08:02 0.04 hrs 0.00 hrs 0.00 nm 0.00 gal 0.00 gal/hr 0.00 gal/nm 0 msl 0 kts
Fri, Apr 22, 2011 LFPP LFPP 07:44 07:51 0.11 hrs 0.00 hrs 0.00 nm 0.00 gal 0.00 gal/hr 0.00 gal/nm 0 msl 0 kts
Fri, Apr 22, 2011     07:16 07:17 0.02 hrs 0.00 hrs 0.00 nm 0.00 gal 0.00 gal/hr 0.00 gal/nm 0 msl 0 kts
Fri, Apr 22, 2011 LFPP LFPP 07:12 07:14 0.03 hrs 0.00 hrs 0.00 nm 0.00 gal 0.00 gal/hr 0.00 gal/nm 0 msl 0 kts
Fri, Apr 22, 2011     07:09 07:10 0.02 hrs 0.00 hrs 0.00 nm 0.00 gal 0.00 gal/hr 0.00 gal/nm 0 msl 0 kts
Thu, Apr 21, 2011 LFQB LFPP 14:41 16:03 1.32 hrs 1.02 hrs 131.65 nm 18.99 gal 14.42 gal/hr 0.14 gal/nm 2522 msl 125 kts
Thu, Apr 21, 2011 LSGG LFQB 12:36 14:14 1.62 hrs 1.34 hrs 221.27 nm 27.26 gal 16.79 gal/hr 0.12 gal/nm 14031 msl 165 kts
Thu, Apr 21, 2011 LFPP LSGG 09:10 11:03 1.88 hrs 1.56 hrs 272.68 nm 31.76 gal 16.94 gal/hr 0.12 gal/nm 19013 msl 173 kts
Thu, Apr 21, 2011 LFPP LFPP 08:43 08:46 0.05 hrs 0.00 hrs 0.00 nm 0.00 gal 0.00 gal/hr 0.00 gal/nm 0 msl 0 kts
Thu, Apr 21, 2011 LFPP LFPP 08:21 08:41 0.33 hrs 0.00 hrs 0.00 nm 0.00 gal 0.00 gal/hr 0.00 gal/nm 0 msl 0 kts
Wed, Apr 20, 2011 LFAQ LFPP 14:48 15:45 0.94 hrs 0.64 hrs 80.90 nm 12.10 gal 12.87 gal/hr 0.15 gal/nm 2515 msl 125 kts
Wed, Apr 20, 2011 LFAT LFAQ 11:53 14:07 2.17 hrs 1.85 hrs 259.02 nm 34.34 gal 15.82 gal/hr 0.13 gal/nm 7034 msl 138 kts
Wed, Apr 20, 2011 LFPP LFAT 09:17 10:22 1.07 hrs 0.74 hrs 122.20 nm 14.36 gal 13.46 gal/hr 0.12 gal/nm 8012 msl 164 kts
Wed, Apr 20, 2011 LFPP LFPP 09:00 09:04 0.07 hrs 0.00 hrs 0.00 nm 0.00 gal 0.00 gal/hr 0.00 gal/nm 0 msl 0 kts
Wed, Apr 20, 2011 LFPP LFPP 08:20 08:43 0.39 hrs 0.00 hrs 0.00 nm 0.00 gal 0.00 gal/hr 0.00 gal/nm 0 msl 0 kts
Wed, Apr 20, 2011     08:18 08:18 0.01 hrs 0.00 hrs 0.00 nm 0.00 gal 0.00 gal/hr 0.00 gal/nm 0 msl 0 kts
Tue, Apr 19, 2011 LFQB LFPP 12:49 14:17 1.42 hrs 1.12 hrs 156.50 nm 21.71 gal 15.33 gal/hr 0.14 gal/nm 2523 msl 136 kts
Tue, Apr 19, 2011 LFPP LFQB 09:29 11:13 1.72 hrs 1.35 hrs 185.87 nm 24.62 gal 14.34 gal/hr 0.13 gal/nm 3923 msl 136 kts
Tue, Apr 19, 2011 LFPP LFPP 08:55 09:00 0.09 hrs 0.00 hrs 0.00 nm 0.00 gal 0.00 gal/hr 0.00 gal/nm 0 msl 0 kts
Mon, Apr 18, 2011 LFPP LFPP 13:33 15:42 2.09 hrs 1.72 hrs 250.31 nm 33.44 gal 16.01 gal/hr 0.13 gal/nm 3516 msl 141 kts
Mon, Apr 18, 2011 LFPP LFPP 13:11 13:21 0.17 hrs 0.00 hrs 0.00 nm 0.54 gal 3.30 gal/hr 0.00 gal/nm 0 msl 0 kts
Mon, Apr 18, 2011 LFPP LFPP 12:31 12:39 0.14 hrs 0.00 hrs 0.00 nm 0.00 gal 0.00 gal/hr 0.00 gal/nm 0 msl 0 kts
Mon, Apr 18, 2011 LFPP LFPP 12:09 12:29 0.32 hrs 0.00 hrs 0.00 nm 0.00 gal 0.00 gal/hr 0.00 gal/nm 0 msl 0 kts
Mon, Apr 18, 2011 LFPP LFPP 09:30 10:34 1.06 hrs 0.00 hrs 0.00 nm 0.00 gal 0.00 gal/hr 0.00 gal/nm 0 msl 0 kts
Fri, Apr 15, 2011     08:38 08:38 0.01 hrs 0.00 hrs 0.00 nm 0.00 gal 0.00 gal/hr 0.00 gal/nm 0 msl 0 kts
Fri, Apr 15, 2011     08:35 08:36 0.01 hrs 0.00 hrs 0.00 nm 0.00 gal 0.00 gal/hr 0.00 gal/nm 0 msl 0 kts
Thu, Apr 14, 2011 LFPP LFPP 10:13 10:24 0.17 hrs 0.00 hrs 0.00 nm 1.38 gal 7.96 gal/hr 0.00 gal/nm 0 msl 0 kts
Thu, Apr 14, 2011     09:34 09:35 0 hrs 0.00 hrs 0.00 nm 0.00 gal 0.00 gal/hr 0.00 gal/nm 0 msl 0 kts
Thu, Apr 14, 2011     09:33 09:33 0.01 hrs 0.00 hrs 0.00 nm 0.00 gal 0.24 gal/hr 0.00 gal/nm 0 msl 0 kts
Wed, Apr 13, 2011     13:18 13:18 0.01 hrs 0.00 hrs 0.00 nm 0.00 gal 0.00 gal/hr 0.00 gal/nm 0 msl 0 kts
Wed, Apr 13, 2011 LFPP LFPP 13:02 13:17 0.26 hrs 0.00 hrs 0.00 nm 1.36 gal 5.25 gal/hr 0.00 gal/nm 0 msl 0 kts
Wed, Apr 13, 2011     13:00 13:00 0.01 hrs 0.00 hrs 0.00 nm 0.00 gal 0.00 gal/hr 0.00 gal/nm 0 msl 0 kts
Fri, Apr 8, 2011     08:36 08:38 0.02 hrs 0.00 hrs 0.00 nm 0.00 gal 0.00 gal/hr 0.00 gal/nm 0 msl 0 kts
Thu, Apr 7, 2011 LFPP LFPP 08:56 08:58 0.05 hrs 0.00 hrs 0.00 nm 0.00 gal 0.00 gal/hr 0.00 gal/nm 0 msl 0 kts
Mon, Apr 4, 2011 LFPP LFPP 14:40 14:44 0.07 hrs 0.00 hrs 0.00 nm 0.26 gal 3.99 gal/hr 0.00 gal/nm 0 msl 0 kts
Sat, Apr 2, 2011 EGPC LFPP 11:56 16:10 4.22 hrs 4.01 hrs 648.16 nm 68.25 gal 16.19 gal/hr 0.11 gal/nm 17509 msl 161 kts
Sat, Apr 2, 2011 BIRK EGPC 07:57 11:31 3.55 hrs 3.36 hrs 639.60 nm 58.30 gal 16.43 gal/hr 0.09 gal/nm 17010 msl 191 kts
Fri, Apr 1, 2011 BGBW BIRK 13:53 17:40 3.75 hrs 3.55 hrs 677.49 nm 61.61 gal 16.42 gal/hr 0.09 gal/nm 23011 msl 191 kts
Fri, Apr 1, 2011 CYYR BGBW 06:06 13:11 4.07 hrs 3.82 hrs 676.15 nm 115.95 gal 28.51 gal/hr 0.17 gal/nm 25011 msl 177 kts
Thu, Mar 31, 2011 CYZV CYYR 16:58 19:50 1.86 hrs 1.68 hrs 291.74 nm 46.83 gal 25.20 gal/hr 0.16 gal/nm 13010 msl 174 kts
Thu, Mar 31, 2011 CYYB CYZV 12:49 16:16 3.42 hrs 3.25 hrs 589.45 nm 57.18 gal 16.70 gal/hr 0.10 gal/nm 13062 msl 181 kts
Thu, Mar 31, 2011 KDLH CYYB 07:34 13:09 3.11 hrs 2.86 hrs 528.15 nm 98.83 gal 31.78 gal/hr 0.19 gal/nm 13053 msl 185 kts
Thu, Mar 31, 2011     06:54 06:55 0.02 hrs 0.00 hrs 0.00 nm 0.00 gal 0.00 gal/hr 0.00 gal/nm 0 msl 0 kts
Wed, Mar 30, 2011     16:33 16:33 0.01 hrs 0.00 hrs 0.00 nm 0.00 gal 0.00 gal/hr 0.00 gal/nm 0 msl 0 kts
Wed, Mar 30, 2011 KDLH KDLH 13:10 13:17 0.12 hrs 0.00 hrs 0.00 nm 0.00 gal 0.00 gal/hr 0.00 gal/nm 0 msl 0 kts
Wed, Mar 30, 2011 KDLH KDLH 08:28 08:32 0.07 hrs 0.00 hrs 0.00 nm 0.00 gal 0.00 gal/hr 0.00 gal/nm 0 msl 0 kts
Tue, Mar 29, 2011 KDLH KDLH 19:46 19:52 0.1 hrs 0.00 hrs 0.00 nm 0.00 gal 0.00 gal/hr 0.00 gal/nm 0 msl 0 kts
Tue, Mar 29, 2011     19:04 19:05 0.02 hrs 0.00 hrs 0.00 nm 0.00 gal 0.00 gal/hr 0.00 gal/nm 0 msl 0 kts
Tue, Mar 29, 2011     18:59 19:01 0.03 hrs 0.00 hrs 0.00 nm 0.00 gal 0.00 gal/hr 0.00 gal/nm 0 msl 0 kts
Tue, Mar 29, 2011 KDLH KDLH 17:34 17:39 0.07 hrs 0.00 hrs 0.00 nm 0.00 gal 0.00 gal/hr 0.00 gal/nm 0 msl 0 kts
Tue, Mar 29, 2011     16:55 16:56 0.02 hrs 0.00 hrs 0.00 nm 0.00 gal 0.00 gal/hr 0.00 gal/nm 0 msl 0 kts
Tue, Mar 29, 2011     16:46 16:47 0.01 hrs 0.00 hrs 0.00 nm 0.03 gal 2.33 gal/hr 0.00 gal/nm 0 msl 0 kts
Tue, Mar 29, 2011 KDLH KDLH 16:06 16:41 0.57 hrs 0.35 hrs 50.12 nm 7.67 gal 13.41 gal/hr 0.15 gal/nm 6522 msl 142 kts
Tue, Mar 29, 2011     15:41 15:42 0.01 hrs 0.00 hrs 0.00 nm 0.00 gal 0.00 gal/hr 0.00 gal/nm 0 msl 0 kts
Tue, Mar 29, 2011 KDLH KDLH 13:40 13:46 0.11 hrs 0.00 hrs 0.00 nm 0.00 gal 0.00 gal/hr 0.00 gal/nm 0 msl 0 kts
Tue, Mar 29, 2011     12:31 12:33 0.04 hrs 0.00 hrs 0.00 nm 0.00 gal 0.00 gal/hr 0.00 gal/nm 0 msl 0 kts
Tue, Mar 29, 2011 KDLH KDLH 10:45 10:51 0.11 hrs 0.00 hrs 0.00 nm 0.00 gal 0.00 gal/hr 0.00 gal/nm 0 msl 0 kts
          250.89 hrs 172.71 hrs 28350.34 nm 3719.36 gal